KQA671 HKMO-HKJK
Flight info
| Callsign | KQA671 |
|---|---|
| Flight time | 0h 42m |
| Altitude | 32000 |
| Route | EVIDI2A UTIKU UQ315 UTEPI UTEPI1A |
| Aircraft | B738/M-SDE2E3FGHIRWXY/LB1 |
Departure
| Time | 2026-04-20 19:03 |
|---|---|
| Airport | Moi International Airport (HKMO) |
Arrival
| Time | 2026-04-20 19:46 |
|---|---|
| Airport | Jomo Kenyatta International Airport (HKJK) |
| Time | Latitude | Longitude | Altitude | Speed | Heading |
|---|---|---|---|---|---|
| 2026-04-20 18:41 | -4.02975 | 39.60109 | 209 ft | 0 kts | 201° |
| 2026-04-20 18:47 | -4.02974 | 39.60109 | 209 ft | 0 kts | 201° |
| 2026-04-20 18:47 | -4.02969 | 39.60111 | 209 ft | 2 kts | 201° |
| 2026-04-20 18:47 | -4.02959 | 39.60115 | 209 ft | 3 kts | 201° |
| 2026-04-20 18:48 | -4.02941 | 39.60122 | 209 ft | 3 kts | 201° |
| 2026-04-20 18:48 | -4.02925 | 39.60129 | 209 ft | 0 kts | 201° |
| 2026-04-20 18:48 | -4.02916 | 39.60132 | 209 ft | 2 kts | 204° |
| 2026-04-20 18:48 | -4.02902 | 39.60144 | 209 ft | 3 kts | 244° |
| 2026-04-20 18:49 | -4.02900 | 39.60150 | 209 ft | 0 kts | 258° |
| 2026-04-20 18:57 | -4.02900 | 39.60148 | 209 ft | 1 kts | 263° |
| 2026-04-20 18:57 | -4.02897 | 39.60142 | 209 ft | 1 kts | 295° |
| 2026-04-20 18:57 | -4.02887 | 39.60125 | 209 ft | 5 kts | 302° |
| 2026-04-20 18:58 | -4.02864 | 39.60088 | 209 ft | 5 kts | 299° |
| 2026-04-20 18:58 | -4.02845 | 39.60054 | 209 ft | 7 kts | 300° |
| 2026-04-20 18:58 | -4.02825 | 39.60009 | 209 ft | 5 kts | 272° |
| 2026-04-20 18:58 | -4.02848 | 39.59978 | 209 ft | 7 kts | 216° |
| 2026-04-20 18:59 | -4.02900 | 39.59946 | 209 ft | 10 kts | 209° |
| 2026-04-20 18:59 | -4.02957 | 39.59915 | 209 ft | 7 kts | 209° |
| 2026-04-20 18:59 | -4.03013 | 39.59884 | 209 ft | 11 kts | 209° |
| 2026-04-20 18:59 | -4.03090 | 39.59841 | 209 ft | 15 kts | 210° |
| 2026-04-20 19:00 | -4.03189 | 39.59784 | 209 ft | 18 kts | 210° |
| 2026-04-20 19:00 | -4.03288 | 39.59729 | 209 ft | 17 kts | 209° |
| 2026-04-20 19:00 | -4.03402 | 39.59667 | 209 ft | 20 kts | 208° |
| 2026-04-20 19:00 | -4.03536 | 39.59594 | 209 ft | 24 kts | 208° |
| 2026-04-20 19:01 | -4.03690 | 39.59510 | 209 ft | 27 kts | 208° |
| 2026-04-20 19:01 | -4.03846 | 39.59425 | 209 ft | 26 kts | 208° |
| 2026-04-20 19:01 | -4.03930 | 39.59367 | 209 ft | 11 kts | 238° |
| 2026-04-20 19:01 | -4.03961 | 39.59292 | 209 ft | 7 kts | 251° |
| 2026-04-20 19:02 | -4.03965 | 39.59251 | 209 ft | 7 kts | 276° |
| 2026-04-20 19:02 | -4.03959 | 39.59225 | 209 ft | 9 kts | 284° |
| 2026-04-20 19:02 | -4.03939 | 39.59187 | 209 ft | 3 kts | 326° |
| 2026-04-20 19:02 | -4.03920 | 39.59183 | 209 ft | 2 kts | 8° |
| 2026-04-20 19:03 | -4.03902 | 39.59194 | 209 ft | 5 kts | 29° |
| 2026-04-20 19:03 | -4.03652 | 39.59333 | 209 ft | 108 kts | 29° |
| 2026-04-20 19:03 | -4.02593 | 39.59928 | 324 ft | 231 kts | 29° |
| 2026-04-20 19:03 | -4.00997 | 39.60824 | 1683 ft | 288 kts | 29° |
| 2026-04-20 19:04 | -3.99186 | 39.61841 | 3847 ft | 300 kts | 28° |
| 2026-04-20 19:04 | -3.97376 | 39.62853 | 6506 ft | 293 kts | 28° |
| 2026-04-20 19:04 | -3.95636 | 39.63809 | 9207 ft | 276 kts | 26° |
| 2026-04-20 19:04 | -3.93862 | 39.64382 | 11444 ft | 276 kts | 7° |
| 2026-04-20 19:05 | -3.91932 | 39.64252 | 13115 ft | 278 kts | 342° |
| 2026-04-20 19:05 | -3.90345 | 39.63326 | 15275 ft | 252 kts | 316° |
| 2026-04-20 19:05 | -3.89437 | 39.62002 | 17529 ft | 207 kts | 295° |
| 2026-04-20 19:05 | -3.88886 | 39.60720 | 19018 ft | 195 kts | 290° |
| 2026-04-20 19:06 | -3.88421 | 39.59522 | 20328 ft | 175 kts | 289° |
| 2026-04-20 19:06 | -3.87982 | 39.58442 | 21469 ft | 164 kts | 290° |
| 2026-04-20 19:06 | -3.87506 | 39.57372 | 22111 ft | 177 kts | 293° |
| 2026-04-20 19:06 | -3.86944 | 39.56188 | 22539 ft | 200 kts | 293° |
| 2026-04-20 19:07 | -3.86255 | 39.54851 | 22567 ft | 245 kts | 296° |
| 2026-04-20 19:07 | -3.85206 | 39.53276 | 22570 ft | 289 kts | 307° |
| 2026-04-20 19:07 | -3.83789 | 39.51884 | 23901 ft | 271 kts | 315° |
| 2026-04-20 19:07 | -3.82459 | 39.50690 | 25545 ft | 253 kts | 314° |
| 2026-04-20 19:08 | -3.81199 | 39.49441 | 26370 ft | 253 kts | 309° |
| 2026-04-20 19:08 | -3.78989 | 39.46717 | 27918 ft | 264 kts | 302° |
| 2026-04-20 19:08 | -3.77959 | 39.45156 | 28373 ft | 283 kts | 299° |
| 2026-04-20 19:09 | -3.76918 | 39.43393 | 28655 ft | 307 kts | 297° |
| 2026-04-20 19:09 | -3.75851 | 39.41431 | 28864 ft | 334 kts | 296° |
| 2026-04-20 19:09 | -3.74744 | 39.39281 | 28982 ft | 362 kts | 295° |
| 2026-04-20 19:09 | -3.73579 | 39.36937 | 29011 ft | 390 kts | 295° |
| 2026-04-20 19:10 | -3.72350 | 39.34410 | 29010 ft | 417 kts | 294° |
| 2026-04-20 19:10 | -3.71059 | 39.31718 | 29006 ft | 441 kts | 294° |
| 2026-04-20 19:10 | -3.69721 | 39.28906 | 29003 ft | 462 kts | 294° |
| 2026-04-20 19:11 | -3.66928 | 39.23002 | 28997 ft | 470 kts | 294° |
| 2026-04-20 19:11 | -3.64112 | 39.17033 | 28997 ft | 477 kts | 294° |
| 2026-04-20 19:12 | -3.61277 | 39.11015 | 28996 ft | 480 kts | 294° |
| 2026-04-20 19:12 | -3.58429 | 39.04966 | 28996 ft | 481 kts | 294° |
| 2026-04-20 19:13 | -3.55596 | 38.98944 | 28996 ft | 482 kts | 294° |
| 2026-04-20 19:13 | -3.52740 | 38.92873 | 28996 ft | 482 kts | 294° |
| 2026-04-20 19:14 | -3.49721 | 38.86884 | 29097 ft | 482 kts | 300° |
| 2026-04-20 19:14 | -3.47809 | 38.84132 | 29303 ft | 483 kts | 306° |
| 2026-04-20 19:14 | -3.45688 | 38.81512 | 29529 ft | 485 kts | 309° |
| 2026-04-20 19:14 | -3.43482 | 38.79018 | 29761 ft | 486 kts | 310° |
| 2026-04-20 19:15 | -3.41166 | 38.76539 | 30001 ft | 488 kts | 311° |
| 2026-04-20 19:15 | -3.40896 | 38.76256 | 30028 ft | 488 kts | 311° |
| 2026-04-20 19:16 | -3.40754 | 38.76108 | 30042 ft | 488 kts | 312° |
| 2026-04-20 19:16 | -3.38383 | 38.73659 | 30272 ft | 490 kts | 312° |
| 2026-04-20 19:16 | -3.35989 | 38.71226 | 30501 ft | 492 kts | 313° |
| 2026-04-20 19:16 | -3.33578 | 38.68795 | 30729 ft | 493 kts | 313° |
| 2026-04-20 19:17 | -3.31185 | 38.66389 | 30955 ft | 495 kts | 313° |
| 2026-04-20 19:17 | -3.28758 | 38.63949 | 31183 ft | 496 kts | 313° |
| 2026-04-20 19:17 | -3.26320 | 38.61494 | 31412 ft | 498 kts | 313° |
| 2026-04-20 19:17 | -3.23925 | 38.59080 | 31616 ft | 456 kts | 313° |
| 2026-04-20 19:18 | -3.21874 | 38.57027 | 31775 ft | 384 kts | 313° |
| 2026-04-20 19:18 | -3.19991 | 38.55139 | 31920 ft | 393 kts | 312° |
| 2026-04-20 19:18 | -3.18020 | 38.53140 | 31997 ft | 413 kts | 312° |
| 2026-04-20 19:18 | -3.15961 | 38.51039 | 32007 ft | 434 kts | 312° |
| 2026-04-20 19:19 | -3.13803 | 38.48827 | 32004 ft | 453 kts | 312° |
| 2026-04-20 19:19 | -3.11599 | 38.46561 | 32002 ft | 469 kts | 312° |
| 2026-04-20 19:19 | -3.09294 | 38.44191 | 32000 ft | 480 kts | 312° |
| 2026-04-20 19:20 | -3.04576 | 38.39336 | 31997 ft | 490 kts | 312° |
| 2026-04-20 19:20 | -2.99809 | 38.34434 | 31996 ft | 492 kts | 312° |
| 2026-04-20 19:21 | -2.95067 | 38.29556 | 31996 ft | 492 kts | 312° |
| 2026-04-20 19:21 | -2.90290 | 38.24639 | 31996 ft | 493 kts | 312° |
| 2026-04-20 19:22 | -2.85512 | 38.19719 | 31996 ft | 493 kts | 312° |
| 2026-04-20 19:22 | -2.80738 | 38.14802 | 31996 ft | 493 kts | 312° |
| 2026-04-20 19:23 | -2.75987 | 38.09905 | 31996 ft | 493 kts | 312° |
| 2026-04-20 19:23 | -2.71210 | 38.04982 | 31996 ft | 493 kts | 312° |
| 2026-04-20 19:24 | -2.66430 | 38.00056 | 31996 ft | 493 kts | 312° |
| 2026-04-20 19:24 | -2.61654 | 37.95133 | 31996 ft | 493 kts | 312° |
| 2026-04-20 19:25 | -2.56908 | 37.90240 | 31996 ft | 493 kts | 312° |
| 2026-04-20 19:25 | -2.52128 | 37.85313 | 31996 ft | 493 kts | 312° |
| 2026-04-20 19:26 | -2.47352 | 37.80391 | 31996 ft | 493 kts | 312° |
| 2026-04-20 19:26 | -2.42571 | 37.75464 | 31996 ft | 493 kts | 312° |
| 2026-04-20 19:27 | -2.37793 | 37.70541 | 31996 ft | 493 kts | 312° |
| 2026-04-20 19:27 | -2.33049 | 37.65653 | 31996 ft | 493 kts | 312° |
| 2026-04-20 19:28 | -2.28274 | 37.60732 | 31996 ft | 493 kts | 312° |
| 2026-04-20 19:28 | -2.23493 | 37.55806 | 31996 ft | 493 kts | 312° |
| 2026-04-20 19:29 | -2.18710 | 37.50876 | 31665 ft | 498 kts | 312° |
| 2026-04-20 19:29 | -2.17118 | 37.49235 | 31171 ft | 496 kts | 312° |
| 2026-04-20 19:29 | -2.14041 | 37.46070 | 30197 ft | 457 kts | 312° |
| 2026-04-20 19:29 | -2.11897 | 37.43864 | 29551 ft | 430 kts | 312° |
| 2026-04-20 19:30 | -2.09883 | 37.41778 | 29013 ft | 406 kts | 311° |
| 2026-04-20 19:30 | -2.07977 | 37.39785 | 28499 ft | 385 kts | 311° |
| 2026-04-20 19:30 | -2.06183 | 37.37878 | 27991 ft | 368 kts | 309° |
| 2026-04-20 19:30 | -2.04660 | 37.35908 | 27488 ft | 352 kts | 302° |
| 2026-04-20 19:31 | -2.03788 | 37.34559 | 27161 ft | 343 kts | 299° |
| 2026-04-20 19:31 | -2.02271 | 37.31873 | 26573 ft | 333 kts | 296° |
| 2026-04-20 19:31 | -2.01204 | 37.29788 | 26147 ft | 341 kts | 295° |
| 2026-04-20 19:31 | -2.00151 | 37.27633 | 25726 ft | 349 kts | 294° |
| 2026-04-20 19:32 | -1.99098 | 37.25423 | 25303 ft | 353 kts | 294° |
| 2026-04-20 19:32 | -1.98050 | 37.23194 | 24880 ft | 355 kts | 294° |
| 2026-04-20 19:32 | -1.97005 | 37.20955 | 24456 ft | 356 kts | 293° |
| 2026-04-20 19:32 | -1.95962 | 37.18712 | 24031 ft | 355 kts | 293° |
| 2026-04-20 19:33 | -1.94923 | 37.16475 | 23594 ft | 354 kts | 293° |
| 2026-04-20 19:33 | -1.94238 | 37.14998 | 23298 ft | 353 kts | 293° |
| 2026-04-20 19:33 | -1.92874 | 37.12062 | 22704 ft | 351 kts | 293° |
| 2026-04-20 19:33 | -1.91849 | 37.09855 | 22253 ft | 349 kts | 293° |
| 2026-04-20 19:34 | -1.90830 | 37.07660 | 21802 ft | 346 kts | 293° |
| 2026-04-20 19:34 | -1.90162 | 37.06222 | 21504 ft | 345 kts | 293° |
| 2026-04-20 19:34 | -1.89155 | 37.04055 | 21054 ft | 342 kts | 293° |
| 2026-04-20 19:34 | -1.88172 | 37.01940 | 20611 ft | 340 kts | 293° |
| 2026-04-20 19:35 | -1.87179 | 36.99804 | 20161 ft | 338 kts | 293° |
| 2026-04-20 19:35 | -1.86189 | 36.97674 | 19708 ft | 335 kts | 294° |
| 2026-04-20 19:35 | -1.84895 | 36.94890 | 19112 ft | 332 kts | 294° |
| 2026-04-20 19:35 | -1.83926 | 36.92805 | 18662 ft | 330 kts | 294° |
| 2026-04-20 19:36 | -1.83274 | 36.91402 | 18357 ft | 328 kts | 294° |
| 2026-04-20 19:36 | -1.82009 | 36.88679 | 17761 ft | 325 kts | 294° |
| 2026-04-20 19:36 | -1.81378 | 36.87323 | 17462 ft | 324 kts | 294° |
| 2026-04-20 19:36 | -1.80431 | 36.85287 | 17011 ft | 321 kts | 294° |
| 2026-04-20 19:37 | -1.79494 | 36.83270 | 16561 ft | 319 kts | 294° |
| 2026-04-20 19:37 | -1.78495 | 36.81296 | 16104 ft | 317 kts | 303° |
| 2026-04-20 19:37 | -1.76957 | 36.79734 | 15651 ft | 318 kts | 324° |
| 2026-04-20 19:37 | -1.74932 | 36.78865 | 15201 ft | 320 kts | 346° |
| 2026-04-20 19:38 | -1.72711 | 36.78805 | 14757 ft | 322 kts | 5° |
| 2026-04-20 19:38 | -1.70564 | 36.79305 | 14320 ft | 319 kts | 15° |
| 2026-04-20 19:38 | -1.68518 | 36.80043 | 13869 ft | 307 kts | 19° |
| 2026-04-20 19:38 | -1.66586 | 36.80848 | 13416 ft | 296 kts | 20° |
| 2026-04-20 19:39 | -1.64733 | 36.81643 | 12965 ft | 287 kts | 20° |
| 2026-04-20 19:39 | -1.62847 | 36.82123 | 12501 ft | 274 kts | 0° |
| 2026-04-20 19:39 | -1.60980 | 36.81971 | 12061 ft | 265 kts | 348° |
| 2026-04-20 19:39 | -1.58645 | 36.81425 | 11494 ft | 254 kts | 343° |
| 2026-04-20 19:40 | -1.57535 | 36.81111 | 11256 ft | 236 kts | 342° |
| 2026-04-20 19:40 | -1.56055 | 36.80673 | 10855 ft | 211 kts | 342° |
| 2026-04-20 19:40 | -1.54705 | 36.80263 | 10434 ft | 205 kts | 341° |
| 2026-04-20 19:40 | -1.53336 | 36.79841 | 9989 ft | 207 kts | 341° |
| 2026-04-20 19:41 | -1.51961 | 36.79416 | 9541 ft | 207 kts | 341° |
| 2026-04-20 19:41 | -1.50586 | 36.78991 | 9091 ft | 207 kts | 342° |
| 2026-04-20 19:41 | -1.49216 | 36.78568 | 8643 ft | 206 kts | 342° |
| 2026-04-20 19:41 | -1.47848 | 36.78145 | 8193 ft | 205 kts | 342° |
| 2026-04-20 19:42 | -1.46486 | 36.77723 | 7744 ft | 205 kts | 342° |
| 2026-04-20 19:42 | -1.45130 | 36.77304 | 7294 ft | 204 kts | 342° |
| 2026-04-20 19:42 | -1.43737 | 36.77065 | 6804 ft | 207 kts | 359° |
| 2026-04-20 19:42 | -1.42407 | 36.77569 | 6371 ft | 214 kts | 31° |
| 2026-04-20 19:43 | -1.41714 | 36.78274 | 6110 ft | 216 kts | 49° |
| 2026-04-20 19:43 | -1.40427 | 36.80395 | 6022 ft | 209 kts | 59° |
| 2026-04-20 19:43 | -1.39954 | 36.81237 | 6127 ft | 209 kts | 59° |
| 2026-04-20 19:43 | -1.38968 | 36.82880 | 6354 ft | 207 kts | 56° |
| 2026-04-20 19:44 | -1.38440 | 36.83692 | 6408 ft | 205 kts | 55° |
| 2026-04-20 19:44 | -1.37371 | 36.85211 | 6283 ft | 198 kts | 52° |
| 2026-04-20 19:44 | -1.36596 | 36.86326 | 6179 ft | 195 kts | 55° |
| 2026-04-20 19:44 | -1.35844 | 36.87435 | 6182 ft | 190 kts | 53° |
| 2026-04-20 19:45 | -1.35336 | 36.88142 | 6272 ft | 191 kts | 52° |
| 2026-04-20 19:45 | -1.34278 | 36.89574 | 5926 ft | 191 kts | 52° |
| 2026-04-20 19:45 | -1.33757 | 36.90276 | 5790 ft | 188 kts | 52° |
| 2026-04-20 19:45 | -1.32978 | 36.91331 | 5493 ft | 189 kts | 52° |
| 2026-04-20 19:46 | -1.32270 | 36.92303 | 5341 ft | 148 kts | 50° |
| 2026-04-20 19:46 | -1.31786 | 36.92960 | 5339 ft | 83 kts | 55° |
| 2026-04-20 19:46 | -1.31549 | 36.93286 | 5339 ft | 31 kts | 53° |
| 2026-04-20 19:46 | -1.31450 | 36.93426 | 5339 ft | 22 kts | 53° |
| 2026-04-20 19:47 | -1.31376 | 36.93527 | 5339 ft | 14 kts | 53° |
| 2026-04-20 19:47 | -1.31332 | 36.93588 | 5339 ft | 9 kts | 54° |
| 2026-04-20 19:47 | -1.31300 | 36.93632 | 5339 ft | 8 kts | 54° |
| 2026-04-20 19:47 | -1.31268 | 36.93676 | 5339 ft | 8 kts | 53° |
| 2026-04-20 19:48 | -1.31233 | 36.93724 | 5339 ft | 9 kts | 53° |
| 2026-04-20 19:48 | -1.31195 | 36.93774 | 5339 ft | 9 kts | 53° |
| 2026-04-20 19:48 | -1.31178 | 36.93807 | 5339 ft | 3 kts | 80° |
| 2026-04-20 19:48 | -1.31180 | 36.93820 | 5339 ft | 1 kts | 108° |
| 2026-04-20 19:49 | -1.31184 | 36.93827 | 5339 ft | 1 kts | 118° |
| 2026-04-20 19:49 | -1.31197 | 36.93843 | 5339 ft | 5 kts | 136° |
| 2026-04-20 19:49 | -1.31238 | 36.93874 | 5339 ft | 10 kts | 143° |
| 2026-04-20 19:49 | -1.31310 | 36.93926 | 5339 ft | 16 kts | 144° |
| 2026-04-20 19:50 | -1.31403 | 36.93992 | 5339 ft | 14 kts | 154° |
| 2026-04-20 19:50 | -1.31466 | 36.93954 | 5339 ft | 14 kts | 231° |
| 2026-04-20 19:50 | -1.31536 | 36.93862 | 5339 ft | 19 kts | 233° |
| 2026-04-20 19:50 | -1.31627 | 36.93738 | 5339 ft | 25 kts | 233° |
| 2026-04-20 19:51 | -1.31718 | 36.93617 | 5339 ft | 19 kts | 233° |
| 2026-04-20 19:51 | -1.31806 | 36.93494 | 5339 ft | 25 kts | 233° |
| 2026-04-20 19:51 | -1.31919 | 36.93341 | 5339 ft | 30 kts | 234° |
| 2026-04-20 19:51 | -1.32030 | 36.93190 | 5339 ft | 17 kts | 233° |
| 2026-04-20 19:52 | -1.32112 | 36.93080 | 5339 ft | 22 kts | 233° |
| 2026-04-20 19:52 | -1.32191 | 36.92973 | 5339 ft | 19 kts | 233° |
| 2026-04-20 19:52 | -1.32282 | 36.92848 | 5339 ft | 25 kts | 233° |
| 2026-04-20 19:52 | -1.32360 | 36.92744 | 5339 ft | 9 kts | 233° |
| 2026-04-20 19:53 | -1.32399 | 36.92691 | 5339 ft | 12 kts | 233° |
| 2026-04-20 19:53 | -1.32459 | 36.92609 | 5339 ft | 18 kts | 234° |
| 2026-04-20 19:53 | -1.32539 | 36.92499 | 5339 ft | 17 kts | 234° |
| 2026-04-20 19:53 | -1.32612 | 36.92399 | 5339 ft | 15 kts | 233° |
| 2026-04-20 19:54 | -1.32671 | 36.92346 | 5339 ft | 9 kts | 175° |
| 2026-04-20 19:54 | -1.32733 | 36.92386 | 5339 ft | 11 kts | 137° |
| 2026-04-20 19:54 | -1.32767 | 36.92435 | 5339 ft | 9 kts | 94° |
| 2026-04-20 19:54 | -1.32765 | 36.92492 | 5339 ft | 4 kts | 88° |
| 2026-04-20 19:55 | -1.32773 | 36.92508 | 5339 ft | 5 kts | 121° |
| 2026-04-20 19:55 | -1.32803 | 36.92533 | 5339 ft | 6 kts | 174° |
| 2026-04-20 19:55 | -1.32852 | 36.92525 | 5339 ft | 8 kts | 193° |
| 2026-04-20 19:55 | -1.32858 | 36.92524 | 5339 ft | 0 kts | 193° |
| 2026-04-20 19:56 | -1.32864 | 36.92522 | 5339 ft | 0 kts | 195° |
| 2026-04-20 19:56 | -1.32869 | 36.92520 | 5339 ft | 1 kts | 197° |
| 2026-04-20 19:56 | -1.32875 | 36.92519 | 5339 ft | 0 kts | 191° |
| 2026-04-20 19:57 | -1.32876 | 36.92519 | 5339 ft | 0 kts | 191° |